createdAt,value
2022-12-02T00:01:21.560Z,16.17
2022-12-02T00:03:49.187Z,16.40
2022-12-02T00:06:23.307Z,15.63
2022-12-02T00:08:50.166Z,18.42
2022-12-02T00:11:45.195Z,13.73
2022-12-02T00:14:29.710Z,14.57
2022-12-02T00:16:57.176Z,14.02
2022-12-02T00:19:23.979Z,14.88
2022-12-02T00:21:51.875Z,16.60
2022-12-02T00:24:19.491Z,18.05
2022-12-02T00:26:46.788Z,15.10
2022-12-02T00:29:14.033Z,15.82
2022-12-02T00:31:41.089Z,13.90
2022-12-02T00:34:07.970Z,14.35
2022-12-02T00:36:34.848Z,16.92
2022-12-02T00:39:01.661Z,15.40
2022-12-02T00:41:28.451Z,15.35
2022-12-02T00:44:13.893Z,13.75
2022-12-02T00:46:40.691Z,16.63
2022-12-02T00:49:13.699Z,16.98
2022-12-02T00:51:42.038Z,13.68
2022-12-02T00:54:09.975Z,14.25
2022-12-02T00:56:37.260Z,11.50
2022-12-02T00:59:05.413Z,16.33
2022-12-02T01:01:33.411Z,15.48
2022-12-02T01:04:00.354Z,17.05
2022-12-02T01:06:28.538Z,14.18
2022-12-02T01:08:55.373Z,14.30
2022-12-02T01:11:22.124Z,15.85
2022-12-02T01:13:48.918Z,13.85
2022-12-02T01:16:16.206Z,15.25
2022-12-02T01:18:43.005Z,14.95
2022-12-02T01:21:09.811Z,13.40
2022-12-02T01:23:36.754Z,14.65
2022-12-02T01:26:03.882Z,15.07
2022-12-02T01:28:30.596Z,12.18
2022-12-02T01:30:57.355Z,13.57
2022-12-02T01:33:24.134Z,13.60
2022-12-02T01:35:50.937Z,14.18
2022-12-02T01:38:17.772Z,13.15
2022-12-02T01:40:44.886Z,13.55
2022-12-02T01:43:12.647Z,12.32
2022-12-02T01:45:39.688Z,12.20
2022-12-02T01:48:07.209Z,13.63
2022-12-02T01:50:34.357Z,12.05
2022-12-02T01:53:01.843Z,11.93
2022-12-02T01:55:29.536Z,12.75
2022-12-02T01:57:58.310Z,16.48
2022-12-02T02:00:25.708Z,11.63
2022-12-02T02:02:52.521Z,12.02
2022-12-02T02:05:29.017Z,13.07
2022-12-02T02:07:59.258Z,12.43
2022-12-02T02:10:27.877Z,13.93
2022-12-02T02:12:54.863Z,12.63
2022-12-02T02:15:22.767Z,12.15
2022-12-02T02:17:50.240Z,12.02
2022-12-02T02:20:22.673Z,12.48
2022-12-02T02:22:58.215Z,13.85
2022-12-02T02:25:25.102Z,16.45
2022-12-02T02:27:57.365Z,12.70
2022-12-02T02:30:24.590Z,13.73
2022-12-02T02:32:52.397Z,12.65
2022-12-02T02:35:21.193Z,11.73
2022-12-02T02:37:49.846Z,10.63
2022-12-02T02:40:17.688Z,12.80
2022-12-02T02:42:46.281Z,14.40
2022-12-02T02:45:13.897Z,13.15
2022-12-02T02:47:40.878Z,13.10
2022-12-02T02:50:08.713Z,13.57
2022-12-02T02:52:36.066Z,11.85
2022-12-02T02:55:04.110Z,14.07
2022-12-02T02:57:31.409Z,12.93
2022-12-02T02:59:58.421Z,12.30
2022-12-02T03:02:26.306Z,11.10
2022-12-02T03:04:54.034Z,11.90
2022-12-02T03:07:21.678Z,11.02
2022-12-02T03:09:49.260Z,12.32
2022-12-02T03:12:17.570Z,12.73
2022-12-02T03:14:45.228Z,12.73
2022-12-02T03:17:12.790Z,15.38
2022-12-02T03:19:40.365Z,10.70
2022-12-02T03:22:07.816Z,13.70
2022-12-02T03:24:35.742Z,11.38
2022-12-02T03:27:03.120Z,12.82
2022-12-02T03:29:30.674Z,11.32
2022-12-02T03:32:00.100Z,10.73
2022-12-02T03:34:28.110Z,12.27
2022-12-02T03:36:55.261Z,10.82
2022-12-02T03:39:22.336Z,12.40
2022-12-02T03:41:49.313Z,12.90
2022-12-02T03:44:16.589Z,12.07
2022-12-02T03:46:44.384Z,13.15
2022-12-02T03:49:12.747Z,12.05
2022-12-02T03:51:40.390Z,13.75
2022-12-02T03:54:07.534Z,12.20
2022-12-02T03:56:39.524Z,13.25
2022-12-02T03:59:07.094Z,11.20
2022-12-02T04:01:33.957Z,10.95
2022-12-02T04:04:00.709Z,12.43
2022-12-02T04:06:27.541Z,13.88
2022-12-02T04:08:54.358Z,11.90
2022-12-02T04:11:21.154Z,11.70
2022-12-02T04:13:47.955Z,11.07
2022-12-02T04:16:14.794Z,11.25
2022-12-02T04:18:41.642Z,12.25
2022-12-02T04:21:08.487Z,10.77
2022-12-02T04:23:35.333Z,12.57
2022-12-02T04:26:02.185Z,10.88
2022-12-02T04:28:29.184Z,11.93
2022-12-02T04:30:56.014Z,15.07
2022-12-02T04:33:22.920Z,10.68
2022-12-02T04:35:49.725Z,9.75
2022-12-02T04:38:16.565Z,10.35
2022-12-02T04:40:43.504Z,13.63
2022-12-02T04:43:10.454Z,11.10
2022-12-02T04:45:37.382Z,12.35
2022-12-02T04:48:04.487Z,9.85
2022-12-02T04:50:31.325Z,10.65
2022-12-02T04:52:58.153Z,11.45
2022-12-02T04:55:24.965Z,12.45
2022-12-02T04:57:53.214Z,12.73
2022-12-02T05:00:20.493Z,13.38
2022-12-02T05:02:47.408Z,11.95
2022-12-02T05:05:14.411Z,12.50
2022-12-02T05:07:41.325Z,10.57
2022-12-02T05:10:09.041Z,12.90
2022-12-02T05:12:35.857Z,12.57
2022-12-02T05:15:02.680Z,14.18
2022-12-02T05:17:30.879Z,9.63
2022-12-02T05:19:58.004Z,10.95
2022-12-02T05:22:24.912Z,13.50
2022-12-02T05:24:52.071Z,14.80
2022-12-02T05:27:19.872Z,11.65
2022-12-02T05:29:46.673Z,11.52
2022-12-02T05:32:13.493Z,15.65
2022-12-02T05:34:40.368Z,12.98
2022-12-02T05:37:07.213Z,13.65
2022-12-02T05:39:33.944Z,12.40
2022-12-02T05:42:05.411Z,11.05
2022-12-02T05:44:39.372Z,11.73
2022-12-02T05:47:11.487Z,11.50
2022-12-02T05:49:38.887Z,11.82
2022-12-02T05:52:26.675Z,11.45
2022-12-02T05:54:56.836Z,12.18
2022-12-02T05:57:27.982Z,12.90
2022-12-02T06:00:11.385Z,11.70
2022-12-02T06:02:49.594Z,16.17
2022-12-02T06:05:20.048Z,12.15
2022-12-02T06:07:48.653Z,14.15
2022-12-02T06:10:22.306Z,23.90
2022-12-02T06:12:49.882Z,20.30
2022-12-02T06:15:16.980Z,17.08
2022-12-02T06:17:43.874Z,15.38
2022-12-02T06:20:33.814Z,14.43
2022-12-02T06:23:02.411Z,14.77
2022-12-02T06:25:31.254Z,13.48
2022-12-02T06:28:15.897Z,15.65
2022-12-02T06:30:42.909Z,11.90
2022-12-02T06:33:24.580Z,18.98
2022-12-02T06:35:52.160Z,15.48
2022-12-02T06:38:30.829Z,13.52
2022-12-02T06:41:12.841Z,12.55
2022-12-02T06:43:39.686Z,13.73
2022-12-02T06:46:17.671Z,15.98
2022-12-02T06:48:44.455Z,19.30
2022-12-02T06:51:20.044Z,15.88
2022-12-02T06:53:47.513Z,17.65
2022-12-02T06:56:17.109Z,17.17
2022-12-02T06:58:47.630Z,19.80
2022-12-02T07:01:22.149Z,18.27
2022-12-02T07:03:57.418Z,16.55
2022-12-02T07:06:26.857Z,21.42
2022-12-02T07:08:58.050Z,20.77
2022-12-02T07:12:03.919Z,14.88
2022-12-02T07:15:07.585Z,15.77
2022-12-02T07:17:40.288Z,15.55
2022-12-02T07:20:07.032Z,15.45
2022-12-02T07:22:35.677Z,14.48
2022-12-02T07:25:16.752Z,16.42
2022-12-02T07:27:48.679Z,15.95
2022-12-02T07:30:21.180Z,13.88
2022-12-02T07:32:47.907Z,14.88
2022-12-02T07:35:14.829Z,15.00
2022-12-02T07:37:41.761Z,14.05
2022-12-02T07:40:09.022Z,16.83
2022-12-02T07:42:36.012Z,17.25
2022-12-02T07:45:02.835Z,17.80
2022-12-02T07:47:29.531Z,16.45
2022-12-02T07:49:56.294Z,23.02
2022-12-02T07:52:23.046Z,19.88
2022-12-02T07:54:50.295Z,19.48
2022-12-02T07:57:17.317Z,20.20
2022-12-02T07:59:44.088Z,17.25
2022-12-02T08:02:10.861Z,24.27
2022-12-02T08:04:37.716Z,18.15
2022-12-02T08:07:04.729Z,19.23
2022-12-02T08:09:31.555Z,23.08
2022-12-02T08:11:58.647Z,27.75
2022-12-02T08:14:25.565Z,28.80
2022-12-02T08:16:52.520Z,30.15
2022-12-02T08:19:19.438Z,21.63
2022-12-02T08:21:46.262Z,28.13
2022-12-02T08:24:13.162Z,28.50
2022-12-02T08:26:40.157Z,30.65
2022-12-02T08:29:06.992Z,30.70
2022-12-02T08:31:33.764Z,32.80
2022-12-02T08:34:06.592Z,27.00
2022-12-02T08:36:34.495Z,27.70
2022-12-02T08:39:05.769Z,34.38
2022-12-02T08:41:37.141Z,28.60
2022-12-02T08:44:05.008Z,28.63
2022-12-02T08:46:32.107Z,26.58
2022-12-02T08:49:00.154Z,28.27
2022-12-02T08:51:27.238Z,26.42
2022-12-02T08:53:54.579Z,25.23
2022-12-02T08:56:21.431Z,28.45
2022-12-02T08:58:48.398Z,30.02
2022-12-02T09:01:15.217Z,29.83
2022-12-02T09:03:42.153Z,27.75
2022-12-02T09:06:09.021Z,24.10
2022-12-02T09:08:36.007Z,21.00
2022-12-02T09:11:03.005Z,24.98
2022-12-02T09:13:29.805Z,21.63
2022-12-02T09:15:56.609Z,21.15
2022-12-02T09:18:25.159Z,24.98
2022-12-02T09:20:51.928Z,23.98
2022-12-02T09:23:18.729Z,20.30
2022-12-02T09:25:45.541Z,21.10
2022-12-02T09:28:12.355Z,23.77
2022-12-02T09:30:40.036Z,21.05
2022-12-02T09:33:06.789Z,19.10
2022-12-02T09:35:33.641Z,21.88
2022-12-02T09:38:01.944Z,19.30
2022-12-02T09:40:28.825Z,19.38
2022-12-02T09:42:55.850Z,21.80
2022-12-02T09:45:22.673Z,20.75
2022-12-02T09:47:49.645Z,17.60
2022-12-02T09:50:17.433Z,18.38
2022-12-02T09:52:45.770Z,18.48
2022-12-02T09:55:15.319Z,17.10
2022-12-02T09:57:42.188Z,19.90
2022-12-02T10:00:21.955Z,19.67
2022-12-02T10:02:54.345Z,20.30
2022-12-02T10:05:22.833Z,23.20
2022-12-02T10:07:50.885Z,25.80
2022-12-02T10:10:23.365Z,24.30
2022-12-02T10:12:50.582Z,25.38
2022-12-02T10:15:29.245Z,20.48
2022-12-02T10:17:56.657Z,24.27
2022-12-02T10:20:27.398Z,23.05
2022-12-02T10:23:16.637Z,20.63
2022-12-02T10:25:51.658Z,24.17
2022-12-02T10:28:28.766Z,24.60
2022-12-02T10:31:05.476Z,26.90
2022-12-02T10:33:35.957Z,25.55
2022-12-02T10:36:03.601Z,22.75
2022-12-02T10:38:45.341Z,20.63
2022-12-02T10:41:15.268Z,17.35
2022-12-02T10:43:52.430Z,28.10
2022-12-02T10:46:20.768Z,22.02
2022-12-02T10:48:48.642Z,21.27
2022-12-02T10:51:17.666Z,22.67
2022-12-02T10:53:47.691Z,22.52
2022-12-02T10:56:23.927Z,21.63
2022-12-02T10:58:51.528Z,21.38
2022-12-02T11:01:21.154Z,21.33
2022-12-02T11:03:48.626Z,19.15
2022-12-02T11:06:18.694Z,21.27
2022-12-02T11:08:48.270Z,20.20
2022-12-02T11:11:35.841Z,24.58
2022-12-02T11:14:05.891Z,26.60
2022-12-02T11:16:32.705Z,20.35
2022-12-02T11:19:33.596Z,19.05
2022-12-02T11:22:01.063Z,20.88
2022-12-02T11:24:27.965Z,25.40
2022-12-02T11:27:01.080Z,30.45
2022-12-02T11:29:32.713Z,23.65
2022-12-02T11:32:26.824Z,18.75
2022-12-02T11:37:47.443Z,23.45
2022-12-02T11:40:17.198Z,24.98
2022-12-02T11:42:45.635Z,21.05
2022-12-02T11:45:15.570Z,19.58
2022-12-02T11:48:02.746Z,22.00
2022-12-02T11:50:32.375Z,27.60
2022-12-02T11:53:16.206Z,30.70
2022-12-02T11:55:46.115Z,24.10
2022-12-02T11:58:32.349Z,29.55
2022-12-02T12:01:15.268Z,21.48
2022-12-02T12:03:50.597Z,24.95
2022-12-02T12:06:17.433Z,27.00
2022-12-02T12:08:53.515Z,21.85
2022-12-02T12:11:22.398Z,24.05
2022-12-02T12:14:04.659Z,24.65
2022-12-02T12:16:37.544Z,24.45
2022-12-02T12:19:13.517Z,22.20
2022-12-02T12:21:45.997Z,23.67
2022-12-02T12:24:18.815Z,25.45
2022-12-02T12:26:46.701Z,24.92
2022-12-02T12:29:13.604Z,22.27
2022-12-02T12:31:40.501Z,29.15
2022-12-02T12:34:07.937Z,32.33
2022-12-02T12:36:35.740Z,26.98
2022-12-02T12:39:03.819Z,32.28
2022-12-02T12:41:58.743Z,29.40
2022-12-02T12:44:17.380Z,29.50
2022-12-02T12:46:44.366Z,33.88
2022-12-02T12:49:11.275Z,34.20
2022-12-02T12:51:38.216Z,36.83
2022-12-02T12:54:05.260Z,32.45
2022-12-02T12:56:32.009Z,34.22
2022-12-02T12:58:58.834Z,41.40
2022-12-02T13:01:25.650Z,32.22
2022-12-02T13:03:52.583Z,31.83
2022-12-02T13:06:20.838Z,33.75
2022-12-02T13:08:47.833Z,31.10
2022-12-02T13:11:14.935Z,33.63
2022-12-02T13:13:41.849Z,30.60
2022-12-02T13:16:09.096Z,35.72
2022-12-02T13:18:35.875Z,31.83
2022-12-02T13:21:02.726Z,32.13
2022-12-02T13:23:29.481Z,29.70
2022-12-02T13:25:56.542Z,31.70
2022-12-02T13:28:23.277Z,36.33
2022-12-02T13:30:52.491Z,29.08
2022-12-02T13:33:19.380Z,32.55
2022-12-02T13:35:46.292Z,36.50
2022-12-02T13:38:16.470Z,37.42
2022-12-02T13:40:47.595Z,32.72
2022-12-02T13:45:44.588Z,31.52
2022-12-02T13:48:13.273Z,31.85
2022-12-02T13:50:40.935Z,39.22
2022-12-02T13:53:08.175Z,37.80
2022-12-02T13:55:35.014Z,42.88
2022-12-02T13:58:02.231Z,34.70
2022-12-02T14:00:29.080Z,42.50
2022-12-02T14:02:55.864Z,38.65
2022-12-02T14:05:22.988Z,35.22
2022-12-02T14:07:50.244Z,35.80
2022-12-02T14:10:17.232Z,34.50
2022-12-02T14:12:44.255Z,36.53
2022-12-02T14:15:11.506Z,33.35
2022-12-02T14:17:38.288Z,36.70
2022-12-02T14:20:06.207Z,33.40
2022-12-02T14:22:33.382Z,34.65
2022-12-02T14:25:00.475Z,33.28
2022-12-02T14:27:27.401Z,35.85
2022-12-02T14:29:54.462Z,29.58
2022-12-02T14:32:21.603Z,30.65
2022-12-02T14:34:48.942Z,34.67
2022-12-02T14:37:15.871Z,29.88
2022-12-02T14:39:42.845Z,34.72
2022-12-02T14:42:09.867Z,35.35
2022-12-02T14:44:37.111Z,30.30
2022-12-02T14:47:04.034Z,32.63
2022-12-02T14:49:40.148Z,35.17
2022-12-02T14:52:07.748Z,32.80
2022-12-02T14:54:35.731Z,36.03
2022-12-02T14:57:02.846Z,29.05
2022-12-02T14:59:29.850Z,31.17
2022-12-02T15:01:57.197Z,34.30
2022-12-02T15:04:24.126Z,34.28
2022-12-02T15:06:50.901Z,32.50
2022-12-02T15:09:17.694Z,34.90
2022-12-02T15:11:44.657Z,32.25
2022-12-02T15:14:11.453Z,34.65
2022-12-02T15:16:38.418Z,39.63
2022-12-02T15:19:05.320Z,39.15
2022-12-02T15:38:46.744Z,47.67
2022-12-02T15:41:13.542Z,41.60
2022-12-02T15:43:40.338Z,43.00
2022-12-02T15:46:07.133Z,38.78
2022-12-02T15:48:34.077Z,38.05
2022-12-02T15:51:00.960Z,43.40
2022-12-02T15:53:27.871Z,48.10
2022-12-02T15:55:54.704Z,53.67
2022-12-02T15:58:21.620Z,47.35
2022-12-02T16:00:48.457Z,44.65
2022-12-02T16:03:33.906Z,38.03
2022-12-02T16:06:00.804Z,45.60
2022-12-02T16:08:27.595Z,40.60
2022-12-02T16:10:54.379Z,40.05
2022-12-02T16:13:21.185Z,40.97
2022-12-02T16:15:47.951Z,46.63
2022-12-02T16:18:15.074Z,38.38
2022-12-02T16:20:41.857Z,41.85
2022-12-02T16:23:08.929Z,38.08
2022-12-02T16:25:35.752Z,45.92
2022-12-02T16:28:02.635Z,40.70
2022-12-02T16:30:30.676Z,42.85
2022-12-02T16:32:57.601Z,45.25
2022-12-02T16:35:24.438Z,42.65
2022-12-02T16:37:51.379Z,44.20
2022-12-02T16:40:18.199Z,42.97
2022-12-02T16:42:45.066Z,44.30
2022-12-02T16:45:11.873Z,42.50
2022-12-02T16:59:24.555Z,43.90
2022-12-02T17:01:51.464Z,42.35
2022-12-02T17:04:18.356Z,40.28
2022-12-02T17:06:45.826Z,38.60
2022-12-02T17:09:13.011Z,65.13
2022-12-02T17:11:40.416Z,53.72
2022-12-02T17:14:07.370Z,48.47
2022-12-02T17:16:34.528Z,48.60
2022-12-02T17:19:02.371Z,41.33
2022-12-02T17:21:29.237Z,44.58
2022-12-02T17:23:56.128Z,41.47
2022-12-02T17:26:22.918Z,40.78
2022-12-02T17:28:49.726Z,40.33
2022-12-02T17:31:16.618Z,43.03
2022-12-02T17:33:43.526Z,40.13
2022-12-02T17:36:10.300Z,39.38
2022-12-02T17:38:55.501Z,38.15
2022-12-02T17:41:23.950Z,42.70
2022-12-02T17:43:50.887Z,37.28
2022-12-02T17:46:17.931Z,41.55
2022-12-02T17:48:45.071Z,41.67
2022-12-02T17:51:12.890Z,41.35
2022-12-02T17:53:40.639Z,36.13
2022-12-02T17:56:07.939Z,37.42
2022-12-02T17:58:35.042Z,36.15
2022-12-02T18:01:07.818Z,28.88
2022-12-02T18:03:38.549Z,35.72
2022-12-02T18:06:06.255Z,35.35
2022-12-02T18:08:33.440Z,30.73
2022-12-02T18:11:00.434Z,32.00
2022-12-02T18:13:27.419Z,31.45
2022-12-02T18:15:54.389Z,35.78
2022-12-02T18:18:21.242Z,32.65
2022-12-02T18:20:48.041Z,33.00
2022-12-02T18:23:14.884Z,32.80
2022-12-02T18:25:41.847Z,39.92
2022-12-02T18:28:08.933Z,37.35
2022-12-02T18:30:35.835Z,36.80
2022-12-02T18:33:02.829Z,44.40
2022-12-02T18:35:29.778Z,50.35
2022-12-02T18:37:56.689Z,50.70
2022-12-02T18:40:23.806Z,47.10
2022-12-02T18:42:50.645Z,49.00
2022-12-02T18:45:17.500Z,56.97
2022-12-02T18:47:44.452Z,50.25
2022-12-02T18:50:12.640Z,47.80
2022-12-02T18:52:40.027Z,52.63
2022-12-02T18:55:07.344Z,51.83
2022-12-02T18:57:34.308Z,47.47
2022-12-02T19:00:01.152Z,47.55
2022-12-02T19:02:28.090Z,47.78
2022-12-02T19:04:55.174Z,45.95
2022-12-02T19:07:23.588Z,47.83
2022-12-02T19:09:53.934Z,52.30
2022-12-02T19:12:21.462Z,48.75
2022-12-02T19:14:48.557Z,51.58
2022-12-02T19:17:15.600Z,48.45
2022-12-02T19:19:43.161Z,47.28
2022-12-02T19:22:10.662Z,50.00
2022-12-02T19:24:37.517Z,45.33
2022-12-02T19:27:04.847Z,50.28
2022-12-02T19:29:31.727Z,47.20
2022-12-02T19:31:58.741Z,44.58
2022-12-02T19:34:25.670Z,46.08
2022-12-02T19:36:52.466Z,43.45
2022-12-02T19:39:19.395Z,42.58
2022-12-02T19:41:46.283Z,45.78
2022-12-02T19:44:13.177Z,46.10
2022-12-02T19:46:40.093Z,43.03
2022-12-02T19:49:06.971Z,43.30
2022-12-02T19:51:33.851Z,46.72
2022-12-02T19:54:01.215Z,39.20
2022-12-02T19:56:28.100Z,41.53
2022-12-02T19:58:55.077Z,39.30
2022-12-02T20:01:22.758Z,43.58
2022-12-02T20:03:49.786Z,40.13
2022-12-02T20:06:16.686Z,42.83
2022-12-02T20:08:43.673Z,42.42
2022-12-02T20:11:10.585Z,39.25
2022-12-02T20:13:37.991Z,41.83
2022-12-02T20:16:05.323Z,47.72
2022-12-02T20:18:32.295Z,49.67
2022-12-02T20:20:59.221Z,45.60
2022-12-02T20:23:28.703Z,44.72
2022-12-02T20:25:55.766Z,44.42
2022-12-02T20:28:22.623Z,43.50
2022-12-02T20:30:49.493Z,42.80
2022-12-02T20:33:17.853Z,40.38
2022-12-02T20:35:44.721Z,40.30
2022-12-02T20:38:11.574Z,41.63
2022-12-02T20:40:39.414Z,42.60
2022-12-02T20:43:06.458Z,46.00
2022-12-02T20:45:33.369Z,45.63
2022-12-02T20:48:00.262Z,34.55
2022-12-02T20:50:27.286Z,37.17
2022-12-02T20:52:54.547Z,38.35
2022-12-02T20:55:21.767Z,41.40
2022-12-02T20:57:48.663Z,38.35
2022-12-02T21:00:16.376Z,42.05
2022-12-02T21:02:43.643Z,49.22
2022-12-02T21:05:11.102Z,63.40
2022-12-02T21:07:38.554Z,58.78
2022-12-02T21:10:06.129Z,64.30
2022-12-02T21:12:33.008Z,42.00
2022-12-02T21:15:00.007Z,41.25
2022-12-02T21:17:27.372Z,39.13
2022-12-02T21:19:54.254Z,37.63
2022-12-02T21:22:21.116Z,42.25
2022-12-02T21:24:47.994Z,42.33
2022-12-02T21:27:15.391Z,37.33
2022-12-02T21:29:42.406Z,42.78
2022-12-02T21:32:09.187Z,42.60
2022-12-02T21:34:36.213Z,40.85
2022-12-02T21:37:03.071Z,38.95
2022-12-02T21:39:29.892Z,40.13
2022-12-02T21:41:56.733Z,43.60
2022-12-02T21:44:23.603Z,41.97
2022-12-02T21:46:50.629Z,41.10
2022-12-02T21:49:17.421Z,45.08
2022-12-02T21:51:44.301Z,39.20
2022-12-02T21:54:11.141Z,41.65
2022-12-02T21:56:37.887Z,40.67
2022-12-02T21:59:04.829Z,42.10
2022-12-02T22:01:42.128Z,37.92
2022-12-02T22:04:17.371Z,39.70
2022-12-02T22:06:44.849Z,39.75
2022-12-02T22:09:12.381Z,34.33
2022-12-02T22:11:39.233Z,33.58
2022-12-02T22:14:06.547Z,33.78
2022-12-02T22:16:33.654Z,30.52
2022-12-02T22:19:00.545Z,31.98
2022-12-02T22:21:27.855Z,30.50
2022-12-02T22:23:54.844Z,29.30
2022-12-02T22:26:21.693Z,30.17
2022-12-02T22:28:48.553Z,29.33
2022-12-02T22:31:15.552Z,28.13
2022-12-02T22:33:42.478Z,28.08
2022-12-02T22:36:09.778Z,26.27
2022-12-02T22:38:36.631Z,28.70
2022-12-02T22:41:03.658Z,27.90
2022-12-02T22:43:30.462Z,27.13
2022-12-02T22:45:57.334Z,24.85
2022-12-02T22:48:24.301Z,29.35
2022-12-02T22:50:51.156Z,29.48
2022-12-02T22:53:18.009Z,28.63
2022-12-02T22:55:44.956Z,28.13
2022-12-02T22:58:11.744Z,28.85
2022-12-02T23:00:38.569Z,28.83
2022-12-02T23:03:05.512Z,28.05
2022-12-02T23:05:32.420Z,30.25
2022-12-02T23:07:59.330Z,28.38
2022-12-02T23:10:26.505Z,29.15
2022-12-02T23:12:53.330Z,26.15
2022-12-02T23:15:37.531Z,26.83
2022-12-02T23:18:05.931Z,32.05
2022-12-02T23:20:32.824Z,29.55
2022-12-02T23:22:59.673Z,27.63
2022-12-02T23:25:26.578Z,26.55
2022-12-02T23:27:53.359Z,29.00
2022-12-02T23:30:26.741Z,25.20
2022-12-02T23:32:56.021Z,26.38
2022-12-02T23:35:22.839Z,27.10
2022-12-02T23:37:49.817Z,28.35
2022-12-02T23:40:16.780Z,27.10
2022-12-02T23:42:43.779Z,31.42
2022-12-02T23:45:11.422Z,31.60
2022-12-02T23:47:38.749Z,27.80
2022-12-02T23:50:07.723Z,31.50
2022-12-02T23:52:34.577Z,29.58
2022-12-02T23:55:01.389Z,28.85
2022-12-02T23:57:28.289Z,28.77
2022-12-02T23:59:55.122Z,24.73
